sensor_id;sensor_type;location;lat;lon;timestamp;P1;durP1;ratioP1;P2;durP2;ratioP2
36423;SDS011;22458;45.328;9.514;2023-05-14T00:00:22;3.95;;;2.90;;
36423;SDS011;22458;45.328;9.514;2023-05-14T00:02:48;3.15;;;2.85;;
36423;SDS011;22458;45.328;9.514;2023-05-14T00:05:14;5.32;;;3.08;;
36423;SDS011;22458;45.328;9.514;2023-05-14T00:07:40;4.15;;;2.90;;
36423;SDS011;22458;45.328;9.514;2023-05-14T00:10:05;3.28;;;2.97;;
36423;SDS011;22458;45.328;9.514;2023-05-14T00:12:32;3.47;;;2.88;;
36423;SDS011;22458;45.328;9.514;2023-05-14T00:14:57;2.80;;;2.60;;
36423;SDS011;22458;45.328;9.514;2023-05-14T00:17:23;3.05;;;2.70;;
36423;SDS011;22458;45.328;9.514;2023-05-14T00:19:49;5.03;;;2.60;;
36423;SDS011;22458;45.328;9.514;2023-05-14T00:22:15;3.78;;;2.72;;
36423;SDS011;22458;45.328;9.514;2023-05-14T00:24:41;2.97;;;2.67;;
36423;SDS011;22458;45.328;9.514;2023-05-14T00:27:07;4.45;;;2.63;;
36423;SDS011;22458;45.328;9.514;2023-05-14T00:29:34;3.22;;;2.92;;
36423;SDS011;22458;45.328;9.514;2023-05-14T00:31:59;3.80;;;3.20;;
36423;SDS011;22458;45.328;9.514;2023-05-14T00:34:25;3.72;;;2.95;;
36423;SDS011;22458;45.328;9.514;2023-05-14T00:36:51;3.80;;;3.22;;
36423;SDS011;22458;45.328;9.514;2023-05-14T00:39:16;2.80;;;2.60;;
36423;SDS011;22458;45.328;9.514;2023-05-14T00:41:42;4.88;;;3.33;;
36423;SDS011;22458;45.328;9.514;2023-05-14T00:44:08;4.70;;;3.20;;
36423;SDS011;22458;45.328;9.514;2023-05-14T00:46:34;2.97;;;2.78;;
36423;SDS011;22458;45.328;9.514;2023-05-14T00:49:00;4.40;;;3.30;;
36423;SDS011;22458;45.328;9.514;2023-05-14T00:51:26;3.90;;;3.15;;
36423;SDS011;22458;45.328;9.514;2023-05-14T00:53:52;3.47;;;3.17;;
36423;SDS011;22458;45.328;9.514;2023-05-14T00:56:18;3.90;;;3.30;;
36423;SDS011;22458;45.328;9.514;2023-05-14T00:58:45;3.45;;;3.15;;
36423;SDS011;22458;45.328;9.514;2023-05-14T01:01:11;3.35;;;3.05;;
36423;SDS011;22458;45.328;9.514;2023-05-14T01:03:39;3.00;;;2.70;;
36423;SDS011;22458;45.328;9.514;2023-05-14T01:14:23;2.85;;;2.65;;
36423;SDS011;22458;45.328;9.514;2023-05-14T01:17:01;3.30;;;2.75;;
36423;SDS011;22458;45.328;9.514;2023-05-14T01:22:03;3.10;;;2.80;;
36423;SDS011;22458;45.328;9.514;2023-05-14T01:24:29;2.72;;;2.45;;
36423;SDS011;22458;45.328;9.514;2023-05-14T01:27:04;3.13;;;2.70;;
36423;SDS011;22458;45.328;9.514;2023-05-14T01:32:02;2.58;;;2.30;;
36423;SDS011;22458;45.328;9.514;2023-05-14T01:34:31;3.53;;;2.72;;
36423;SDS011;22458;45.328;9.514;2023-05-14T01:37:00;4.00;;;2.70;;
36423;SDS011;22458;45.328;9.514;2023-05-14T01:39:28;5.50;;;2.15;;
36423;SDS011;22458;45.328;9.514;2023-05-14T01:41:56;2.88;;;2.63;;
36423;SDS011;22458;45.328;9.514;2023-05-14T01:44:24;2.83;;;2.33;;
36423;SDS011;22458;45.328;9.514;2023-05-14T01:46:50;2.40;;;1.83;;
36423;SDS011;22458;45.328;9.514;2023-05-14T01:49:15;2.47;;;2.28;;
36423;SDS011;22458;45.328;9.514;2023-05-14T01:51:42;3.53;;;2.10;;
36423;SDS011;22458;45.328;9.514;2023-05-14T01:54:08;1.88;;;1.65;;
36423;SDS011;22458;45.328;9.514;2023-05-14T01:56:34;2.10;;;1.90;;
36423;SDS011;22458;45.328;9.514;2023-05-14T01:58:59;2.45;;;1.33;;
36423;SDS011;22458;45.328;9.514;2023-05-14T02:01:25;2.67;;;1.48;;
36423;SDS011;22458;45.328;9.514;2023-05-14T02:03:51;4.88;;;3.08;;
36423;SDS011;22458;45.328;9.514;2023-05-14T02:06:17;2.25;;;1.80;;
36423;SDS011;22458;45.328;9.514;2023-05-14T02:08:42;4.95;;;1.55;;
36423;SDS011;22458;45.328;9.514;2023-05-14T02:11:08;2.03;;;1.70;;
36423;SDS011;22458;45.328;9.514;2023-05-14T02:13:34;2.58;;;1.70;;
36423;SDS011;22458;45.328;9.514;2023-05-14T02:16:00;1.92;;;1.55;;
36423;SDS011;22458;45.328;9.514;2023-05-14T02:18:26;2.38;;;1.58;;
36423;SDS011;22458;45.328;9.514;2023-05-14T02:20:51;2.80;;;1.60;;
36423;SDS011;22458;45.328;9.514;2023-05-14T02:23:17;3.00;;;1.60;;
36423;SDS011;22458;45.328;9.514;2023-05-14T02:25:43;3.45;;;2.10;;
36423;SDS011;22458;45.328;9.514;2023-05-14T02:28:09;2.47;;;1.92;;
36423;SDS011;22458;45.328;9.514;2023-05-14T02:30:34;3.10;;;2.28;;
36423;SDS011;22458;45.328;9.514;2023-05-14T02:33:00;3.05;;;2.05;;
36423;SDS011;22458;45.328;9.514;2023-05-14T02:35:26;3.15;;;1.95;;
36423;SDS011;22458;45.328;9.514;2023-05-14T02:37:51;2.83;;;2.17;;
36423;SDS011;22458;45.328;9.514;2023-05-14T02:40:18;4.72;;;2.03;;
36423;SDS011;22458;45.328;9.514;2023-05-14T02:42:44;2.72;;;1.88;;
36423;SDS011;22458;45.328;9.514;2023-05-14T02:45:09;2.90;;;1.90;;
36423;SDS011;22458;45.328;9.514;2023-05-14T02:47:35;2.22;;;1.70;;
36423;SDS011;22458;45.328;9.514;2023-05-14T02:50:01;2.28;;;1.90;;
36423;SDS011;22458;45.328;9.514;2023-05-14T02:52:29;2.20;;;2.00;;
36423;SDS011;22458;45.328;9.514;2023-05-14T02:54:55;2.05;;;1.80;;
36423;SDS011;22458;45.328;9.514;2023-05-14T02:57:20;1.90;;;1.70;;
36423;SDS011;22458;45.328;9.514;2023-05-14T02:59:46;2.85;;;1.67;;
36423;SDS011;22458;45.328;9.514;2023-05-14T03:02:12;2.60;;;1.70;;
36423;SDS011;22458;45.328;9.514;2023-05-14T03:04:37;2.83;;;1.83;;
36423;SDS011;22458;45.328;9.514;2023-05-14T03:07:03;1.60;;;1.45;;
36423;SDS011;22458;45.328;9.514;2023-05-14T03:09:29;4.85;;;1.85;;
36423;SDS011;22458;45.328;9.514;2023-05-14T03:11:55;1.85;;;1.70;;
36423;SDS011;22458;45.328;9.514;2023-05-14T03:14:21;3.45;;;1.58;;
36423;SDS011;22458;45.328;9.514;2023-05-14T03:16:46;3.35;;;1.40;;
36423;SDS011;22458;45.328;9.514;2023-05-14T03:19:12;2.35;;;1.80;;
36423;SDS011;22458;45.328;9.514;2023-05-14T03:21:38;3.42;;;2.53;;
36423;SDS011;22458;45.328;9.514;2023-05-14T03:24:04;2.85;;;2.20;;
36423;SDS011;22458;45.328;9.514;2023-05-14T03:26:30;2.65;;;2.33;;
36423;SDS011;22458;45.328;9.514;2023-05-14T03:28:56;3.20;;;2.53;;
36423;SDS011;22458;45.328;9.514;2023-05-14T03:31:21;3.17;;;2.88;;
36423;SDS011;22458;45.328;9.514;2023-05-14T03:33:47;2.97;;;2.67;;
36423;SDS011;22458;45.328;9.514;2023-05-14T03:36:13;4.28;;;3.30;;
36423;SDS011;22458;45.328;9.514;2023-05-14T03:38:39;6.22;;;3.70;;
36423;SDS011;22458;45.328;9.514;2023-05-14T03:41:05;4.07;;;3.67;;
36423;SDS011;22458;45.328;9.514;2023-05-14T03:43:30;3.95;;;3.45;;
36423;SDS011;22458;45.328;9.514;2023-05-14T03:45:56;4.18;;;3.78;;
36423;SDS011;22458;45.328;9.514;2023-05-14T03:48:22;3.90;;;3.45;;
36423;SDS011;22458;45.328;9.514;2023-05-14T03:50:48;6.78;;;3.50;;
36423;SDS011;22458;45.328;9.514;2023-05-14T03:53:14;6.38;;;4.18;;
36423;SDS011;22458;45.328;9.514;2023-05-14T03:55:40;4.63;;;3.85;;
36423;SDS011;22458;45.328;9.514;2023-05-14T03:58:09;5.32;;;4.30;;
36423;SDS011;22458;45.328;9.514;2023-05-14T04:00:41;4.72;;;3.50;;
36423;SDS011;22458;45.328;9.514;2023-05-14T04:03:08;4.47;;;4.07;;
36423;SDS011;22458;45.328;9.514;2023-05-14T04:05:35;4.97;;;3.60;;
36423;SDS011;22458;45.328;9.514;2023-05-14T04:08:00;4.82;;;3.50;;
36423;SDS011;22458;45.328;9.514;2023-05-14T04:10:26;5.72;;;3.70;;
36423;SDS011;22458;45.328;9.514;2023-05-14T04:12:52;3.67;;;3.38;;
36423;SDS011;22458;45.328;9.514;2023-05-14T04:15:20;6.05;;;3.65;;
36423;SDS011;22458;45.328;9.514;2023-05-14T04:17:46;4.93;;;3.38;;
36423;SDS011;22458;45.328;9.514;2023-05-14T04:20:12;4.35;;;3.50;;
36423;SDS011;22458;45.328;9.514;2023-05-14T04:22:38;3.47;;;3.17;;
36423;SDS011;22458;45.328;9.514;2023-05-14T04:25:03;4.28;;;3.28;;
36423;SDS011;22458;45.328;9.514;2023-05-14T04:27:31;4.00;;;3.60;;
36423;SDS011;22458;45.328;9.514;2023-05-14T04:29:58;5.88;;;3.38;;
36423;SDS011;22458;45.328;9.514;2023-05-14T04:32:23;4.03;;;3.15;;
36423;SDS011;22458;45.328;9.514;2023-05-14T04:34:49;3.25;;;2.95;;
36423;SDS011;22458;45.328;9.514;2023-05-14T04:37:15;3.53;;;2.70;;
36423;SDS011;22458;45.328;9.514;2023-05-14T04:39:41;3.92;;;3.53;;
36423;SDS011;22458;45.328;9.514;2023-05-14T04:42:07;3.22;;;2.92;;
36423;SDS011;22458;45.328;9.514;2023-05-14T04:56:27;3.65;;;3.28;;
36423;SDS011;22458;45.328;9.514;2023-05-14T04:58:53;6.43;;;5.65;;
36423;SDS011;22458;45.328;9.514;2023-05-14T05:01:20;4.85;;;3.92;;
36423;SDS011;22458;45.328;9.514;2023-05-14T05:03:47;5.30;;;4.05;;
36423;SDS011;22458;45.328;9.514;2023-05-14T05:06:13;4.78;;;3.47;;
36423;SDS011;22458;45.328;9.514;2023-05-14T05:08:38;6.40;;;4.28;;
36423;SDS011;22458;45.328;9.514;2023-05-14T05:11:05;5.07;;;3.92;;
36423;SDS011;22458;45.328;9.514;2023-05-14T05:13:31;5.03;;;3.70;;
36423;SDS011;22458;45.328;9.514;2023-05-14T05:15:57;4.03;;;3.63;;
36423;SDS011;22458;45.328;9.514;2023-05-14T05:18:22;4.93;;;4.10;;
36423;SDS011;22458;45.328;9.514;2023-05-14T05:20:48;4.53;;;3.80;;
36423;SDS011;22458;45.328;9.514;2023-05-14T05:23:15;4.22;;;3.88;;
36423;SDS011;22458;45.328;9.514;2023-05-14T05:25:41;4.53;;;3.78;;
36423;SDS011;22458;45.328;9.514;2023-05-14T05:28:08;4.07;;;3.67;;
36423;SDS011;22458;45.328;9.514;2023-05-14T05:30:34;5.10;;;4.07;;
36423;SDS011;22458;45.328;9.514;2023-05-14T05:33:00;4.57;;;3.95;;
36423;SDS011;22458;45.328;9.514;2023-05-14T05:35:26;4.38;;;3.92;;
36423;SDS011;22458;45.328;9.514;2023-05-14T05:37:51;5.32;;;4.30;;
36423;SDS011;22458;45.328;9.514;2023-05-14T05:40:19;5.38;;;4.13;;
36423;SDS011;22458;45.328;9.514;2023-05-14T05:42:44;5.30;;;4.43;;
36423;SDS011;22458;45.328;9.514;2023-05-14T05:45:10;4.90;;;4.40;;
36423;SDS011;22458;45.328;9.514;2023-05-14T05:47:36;4.80;;;4.30;;
36423;SDS011;22458;45.328;9.514;2023-05-14T05:50:02;4.35;;;3.95;;
36423;SDS011;22458;45.328;9.514;2023-05-14T05:52:28;4.32;;;3.92;;
36423;SDS011;22458;45.328;9.514;2023-05-14T05:54:54;5.55;;;4.28;;
36423;SDS011;22458;45.328;9.514;2023-05-14T05:57:20;5.55;;;4.20;;
36423;SDS011;22458;45.328;9.514;2023-05-14T05:59:47;4.35;;;3.95;;
36423;SDS011;22458;45.328;9.514;2023-05-14T06:02:13;6.63;;;4.40;;
36423;SDS011;22458;45.328;9.514;2023-05-14T06:04:39;4.97;;;4.47;;
36423;SDS011;22458;45.328;9.514;2023-05-14T06:07:04;8.02;;;4.38;;
36423;SDS011;22458;45.328;9.514;2023-05-14T06:09:30;6.70;;;4.28;;
36423;SDS011;22458;45.328;9.514;2023-05-14T06:11:56;7.70;;;4.13;;
36423;SDS011;22458;45.328;9.514;2023-05-14T06:14:21;6.22;;;4.40;;
36423;SDS011;22458;45.328;9.514;2023-05-14T06:16:47;6.05;;;4.72;;
36423;SDS011;22458;45.328;9.514;2023-05-14T06:19:13;5.22;;;4.72;;
36423;SDS011;22458;45.328;9.514;2023-05-14T06:21:38;5.03;;;4.22;;
36423;SDS011;22458;45.328;9.514;2023-05-14T06:24:04;4.90;;;3.97;;
36423;SDS011;22458;45.328;9.514;2023-05-14T06:26:30;5.72;;;4.18;;
36423;SDS011;22458;45.328;9.514;2023-05-14T06:28:56;6.22;;;4.25;;
36423;SDS011;22458;45.328;9.514;2023-05-14T06:31:22;5.07;;;4.10;;
36423;SDS011;22458;45.328;9.514;2023-05-14T06:33:47;4.65;;;3.97;;
36423;SDS011;22458;45.328;9.514;2023-05-14T06:36:13;5.70;;;4.03;;
36423;SDS011;22458;45.328;9.514;2023-05-14T06:38:39;4.38;;;3.67;;
36423;SDS011;22458;45.328;9.514;2023-05-14T06:41:05;5.75;;;3.78;;
36423;SDS011;22458;45.328;9.514;2023-05-14T06:43:30;4.47;;;3.67;;
36423;SDS011;22458;45.328;9.514;2023-05-14T06:45:56;5.95;;;4.18;;
36423;SDS011;22458;45.328;9.514;2023-05-14T06:48:22;4.93;;;4.28;;
36423;SDS011;22458;45.328;9.514;2023-05-14T06:50:48;3.92;;;3.53;;
36423;SDS011;22458;45.328;9.514;2023-05-14T06:53:13;6.07;;;5.05;;
36423;SDS011;22458;45.328;9.514;2023-05-14T06:55:39;4.57;;;4.03;;
36423;SDS011;22458;45.328;9.514;2023-05-14T06:58:05;3.03;;;2.72;;
36423;SDS011;22458;45.328;9.514;2023-05-14T07:00:32;4.15;;;2.65;;
36423;SDS011;22458;45.328;9.514;2023-05-14T07:02:58;2.78;;;2.50;;
36423;SDS011;22458;45.328;9.514;2023-05-14T07:05:23;4.57;;;2.97;;
36423;SDS011;22458;45.328;9.514;2023-05-14T07:07:50;4.15;;;2.65;;
36423;SDS011;22458;45.328;9.514;2023-05-14T07:10:15;4.68;;;2.13;;
36423;SDS011;22458;45.328;9.514;2023-05-14T07:12:42;4.63;;;2.50;;
36423;SDS011;22458;45.328;9.514;2023-05-14T07:15:08;2.00;;;1.77;;
36423;SDS011;22458;45.328;9.514;2023-05-14T07:17:34;2.72;;;1.80;;
36423;SDS011;22458;45.328;9.514;2023-05-14T07:20:01;3.85;;;2.28;;
36423;SDS011;22458;45.328;9.514;2023-05-14T07:22:27;2.13;;;1.92;;
36423;SDS011;22458;45.328;9.514;2023-05-14T07:24:53;2.42;;;2.22;;
36423;SDS011;22458;45.328;9.514;2023-05-14T07:27:19;2.58;;;1.95;;
36423;SDS011;22458;45.328;9.514;2023-05-14T07:29:44;2.67;;;2.20;;
36423;SDS011;22458;45.328;9.514;2023-05-14T07:32:10;2.35;;;2.10;;
36423;SDS011;22458;45.328;9.514;2023-05-14T07:34:36;2.47;;;2.28;;
36423;SDS011;22458;45.328;9.514;2023-05-14T07:37:01;2.63;;;2.30;;
36423;SDS011;22458;45.328;9.514;2023-05-14T07:39:27;2.13;;;1.90;;
36423;SDS011;22458;45.328;9.514;2023-05-14T07:41:53;2.22;;;1.65;;
36423;SDS011;22458;45.328;9.514;2023-05-14T07:44:19;4.13;;;2.08;;
36423;SDS011;22458;45.328;9.514;2023-05-14T07:46:45;1.92;;;1.70;;
36423;SDS011;22458;45.328;9.514;2023-05-14T07:49:11;2.45;;;1.52;;
36423;SDS011;22458;45.328;9.514;2023-05-14T07:51:37;1.95;;;1.63;;
36423;SDS011;22458;45.328;9.514;2023-05-14T07:54:03;2.15;;;0.93;;
36423;SDS011;22458;45.328;9.514;2023-05-14T07:56:28;2.33;;;1.13;;
36423;SDS011;22458;45.328;9.514;2023-05-14T07:58:54;2.03;;;1.50;;
36423;SDS011;22458;45.328;9.514;2023-05-14T08:01:20;2.15;;;1.73;;
36423;SDS011;22458;45.328;9.514;2023-05-14T08:03:46;2.95;;;1.15;;
36423;SDS011;22458;45.328;9.514;2023-05-14T08:06:12;1.30;;;1.20;;
36423;SDS011;22458;45.328;9.514;2023-05-14T08:08:38;2.20;;;1.42;;
36423;SDS011;22458;45.328;9.514;2023-05-14T08:11:04;1.90;;;1.52;;
36423;SDS011;22458;45.328;9.514;2023-05-14T08:13:29;2.75;;;1.33;;
36423;SDS011;22458;45.328;9.514;2023-05-14T08:15:56;1.75;;;1.63;;
36423;SDS011;22458;45.328;9.514;2023-05-14T08:18:21;1.60;;;1.45;;
36423;SDS011;22458;45.328;9.514;2023-05-14T08:20:47;1.92;;;1.48;;
36423;SDS011;22458;45.328;9.514;2023-05-14T08:23:13;2.08;;;1.88;;
36423;SDS011;22458;45.328;9.514;2023-05-14T08:25:39;2.20;;;1.75;;
36423;SDS011;22458;45.328;9.514;2023-05-14T08:28:04;3.15;;;1.83;;
36423;SDS011;22458;45.328;9.514;2023-05-14T08:30:31;2.35;;;2.08;;
36423;SDS011;22458;45.328;9.514;2023-05-14T08:32:57;2.10;;;1.90;;
36423;SDS011;22458;45.328;9.514;2023-05-14T08:35:23;3.30;;;1.85;;
36423;SDS011;22458;45.328;9.514;2023-05-14T08:37:49;3.55;;;1.60;;
36423;SDS011;22458;45.328;9.514;2023-05-14T08:40:15;2.17;;;1.95;;
36423;SDS011;22458;45.328;9.514;2023-05-14T08:42:41;2.13;;;1.70;;
36423;SDS011;22458;45.328;9.514;2023-05-14T08:47:42;2.20;;;1.92;;
36423;SDS011;22458;45.328;9.514;2023-05-14T08:50:14;1.52;;;1.40;;
36423;SDS011;22458;45.328;9.514;2023-05-14T08:52:40;1.42;;;1.30;;
36423;SDS011;22458;45.328;9.514;2023-05-14T08:55:06;1.45;;;1.35;;
36423;SDS011;22458;45.328;9.514;2023-05-14T08:57:33;2.05;;;1.65;;
36423;SDS011;22458;45.328;9.514;2023-05-14T09:00:00;1.83;;;1.50;;
36423;SDS011;22458;45.328;9.514;2023-05-14T09:02:30;1.95;;;1.25;;
36423;SDS011;22458;45.328;9.514;2023-05-14T09:04:57;1.95;;;1.15;;
36423;SDS011;22458;45.328;9.514;2023-05-14T09:07:24;1.20;;;0.95;;
36423;SDS011;22458;45.328;9.514;2023-05-14T09:09:50;3.50;;;1.67;;
36423;SDS011;22458;45.328;9.514;2023-05-14T09:12:17;1.48;;;1.17;;
36423;SDS011;22458;45.328;9.514;2023-05-14T09:14:43;1.25;;;1.10;;
36423;SDS011;22458;45.328;9.514;2023-05-14T09:17:11;1.80;;;0.90;;
36423;SDS011;22458;45.328;9.514;2023-05-14T09:19:40;2.05;;;1.10;;
36423;SDS011;22458;45.328;9.514;2023-05-14T09:22:11;1.45;;;0.80;;
36423;SDS011;22458;45.328;9.514;2023-05-14T09:24:38;2.03;;;1.30;;
36423;SDS011;22458;45.328;9.514;2023-05-14T09:27:04;1.38;;;0.75;;
36423;SDS011;22458;45.328;9.514;2023-05-14T09:29:32;4.57;;;1.25;;
36423;SDS011;22458;45.328;9.514;2023-05-14T09:31:58;1.30;;;1.00;;
36423;SDS011;22458;45.328;9.514;2023-05-14T09:34:30;2.25;;;1.10;;
36423;SDS011;22458;45.328;9.514;2023-05-14T09:37:04;1.75;;;0.80;;
36423;SDS011;22458;45.328;9.514;2023-05-14T09:39:33;1.38;;;0.90;;
36423;SDS011;22458;45.328;9.514;2023-05-14T09:42:03;1.20;;;0.80;;
36423;SDS011;22458;45.328;9.514;2023-05-14T09:44:29;1.73;;;1.10;;
36423;SDS011;22458;45.328;9.514;2023-05-14T09:46:55;1.67;;;0.95;;
36423;SDS011;22458;45.328;9.514;2023-05-14T09:49:21;2.92;;;1.40;;
36423;SDS011;22458;45.328;9.514;2023-05-14T09:51:47;1.35;;;1.10;;
36423;SDS011;22458;45.328;9.514;2023-05-14T09:54:13;1.48;;;0.90;;
36423;SDS011;22458;45.328;9.514;2023-05-14T09:56:40;1.33;;;1.00;;
36423;SDS011;22458;45.328;9.514;2023-05-14T09:59:07;2.05;;;1.20;;
36423;SDS011;22458;45.328;9.514;2023-05-14T10:01:32;3.38;;;1.27;;
36423;SDS011;22458;45.328;9.514;2023-05-14T10:03:59;3.15;;;2.55;;
36423;SDS011;22458;45.328;9.514;2023-05-14T10:06:29;2.85;;;1.13;;
36423;SDS011;22458;45.328;9.514;2023-05-14T10:11:29;1.55;;;0.70;;
36423;SDS011;22458;45.328;9.514;2023-05-14T10:16:33;1.17;;;0.60;;
36423;SDS011;22458;45.328;9.514;2023-05-14T10:19:09;1.13;;;0.65;;
36423;SDS011;22458;45.328;9.514;2023-05-14T10:21:36;1.23;;;0.82;;
36423;SDS011;22458;45.328;9.514;2023-05-14T10:24:04;1.23;;;0.70;;
36423;SDS011;22458;45.328;9.514;2023-05-14T10:26:31;1.30;;;0.80;;
36423;SDS011;22458;45.328;9.514;2023-05-14T10:29:01;1.83;;;0.93;;
36423;SDS011;22458;45.328;9.514;2023-05-14T10:31:49;1.08;;;0.60;;
36423;SDS011;22458;45.328;9.514;2023-05-14T10:36:59;1.33;;;0.70;;
36423;SDS011;22458;45.328;9.514;2023-05-14T10:39:42;3.28;;;1.83;;
36423;SDS011;22458;45.328;9.514;2023-05-14T10:42:10;0.93;;;0.70;;
36423;SDS011;22458;45.328;9.514;2023-05-14T10:44:40;1.27;;;0.70;;
36423;SDS011;22458;45.328;9.514;2023-05-14T10:47:11;2.22;;;1.00;;
36423;SDS011;22458;45.328;9.514;2023-05-14T10:49:37;1.00;;;0.40;;
36423;SDS011;22458;45.328;9.514;2023-05-14T10:52:06;0.75;;;0.50;;
36423;SDS011;22458;45.328;9.514;2023-05-14T10:54:36;1.15;;;0.50;;
36423;SDS011;22458;45.328;9.514;2023-05-14T10:57:02;0.75;;;0.50;;
36423;SDS011;22458;45.328;9.514;2023-05-14T10:59:28;0.85;;;0.77;;
36423;SDS011;22458;45.328;9.514;2023-05-14T11:01:55;1.15;;;0.70;;
36423;SDS011;22458;45.328;9.514;2023-05-14T11:04:25;0.90;;;0.70;;
36423;SDS011;22458;45.328;9.514;2023-05-14T11:06:52;1.40;;;0.75;;
36423;SDS011;22458;45.328;9.514;2023-05-14T11:09:18;1.40;;;1.10;;
36423;SDS011;22458;45.328;9.514;2023-05-14T11:11:45;3.85;;;0.80;;
36423;SDS011;22458;45.328;9.514;2023-05-14T11:14:11;3.65;;;2.38;;
36423;SDS011;22458;45.328;9.514;2023-05-14T11:16:38;0.80;;;0.70;;
36423;SDS011;22458;45.328;9.514;2023-05-14T11:19:05;1.95;;;0.70;;
36423;SDS011;22458;45.328;9.514;2023-05-14T11:21:31;1.13;;;0.70;;
36423;SDS011;22458;45.328;9.514;2023-05-14T11:23:58;3.53;;;2.38;;
36423;SDS011;22458;45.328;9.514;2023-05-14T11:26:24;3.00;;;1.52;;
36423;SDS011;22458;45.328;9.514;2023-05-14T11:28:50;1.25;;;0.93;;
36423;SDS011;22458;45.328;9.514;2023-05-14T11:31:16;1.02;;;0.80;;
36423;SDS011;22458;45.328;9.514;2023-05-14T11:33:43;1.20;;;0.77;;
36423;SDS011;22458;45.328;9.514;2023-05-14T11:36:11;1.02;;;0.60;;
36423;SDS011;22458;45.328;9.514;2023-05-14T11:38:47;1.00;;;0.50;;
36423;SDS011;22458;45.328;9.514;2023-05-14T11:41:15;1.50;;;0.47;;
36423;SDS011;22458;45.328;9.514;2023-05-14T11:43:41;0.98;;;0.63;;
36423;SDS011;22458;45.328;9.514;2023-05-14T11:46:07;1.95;;;0.63;;
36423;SDS011;22458;45.328;9.514;2023-05-14T11:48:40;0.80;;;0.50;;
36423;SDS011;22458;45.328;9.514;2023-05-14T11:51:06;1.00;;;0.68;;
36423;SDS011;22458;45.328;9.514;2023-05-14T11:53:31;1.70;;;0.70;;
36423;SDS011;22458;45.328;9.514;2023-05-14T11:55:57;1.50;;;0.90;;
36423;SDS011;22458;45.328;9.514;2023-05-14T11:58:23;1.95;;;1.00;;
36423;SDS011;22458;45.328;9.514;2023-05-14T12:00:50;1.42;;;1.02;;
36423;SDS011;22458;45.328;9.514;2023-05-14T12:03:19;1.15;;;0.80;;
36423;SDS011;22458;45.328;9.514;2023-05-14T12:05:57;1.92;;;0.90;;
36423;SDS011;22458;45.328;9.514;2023-05-14T12:08:27;1.17;;;0.85;;
36423;SDS011;22458;45.328;9.514;2023-05-14T12:10:54;1.67;;;1.25;;
36423;SDS011;22458;45.328;9.514;2023-05-14T12:13:24;1.20;;;1.05;;
36423;SDS011;22458;45.328;9.514;2023-05-14T12:15:55;1.30;;;1.20;;
36423;SDS011;22458;45.328;9.514;2023-05-14T12:18:26;2.17;;;1.48;;
36423;SDS011;22458;45.328;9.514;2023-05-14T12:20:53;2.05;;;1.00;;
36423;SDS011;22458;45.328;9.514;2023-05-14T12:23:29;1.77;;;1.38;;
36423;SDS011;22458;45.328;9.514;2023-05-14T12:26:06;1.83;;;1.40;;
36423;SDS011;22458;45.328;9.514;2023-05-14T12:28:32;2.28;;;1.10;;
36423;SDS011;22458;45.328;9.514;2023-05-14T12:30:59;1.90;;;1.33;;
36423;SDS011;22458;45.328;9.514;2023-05-14T12:33:25;2.83;;;1.20;;
36423;SDS011;22458;45.328;9.514;2023-05-14T12:35:54;2.50;;;1.15;;
36423;SDS011;22458;45.328;9.514;2023-05-14T12:38:30;1.50;;;0.85;;
36423;SDS011;22458;45.328;9.514;2023-05-14T12:40:56;1.42;;;1.23;;
36423;SDS011;22458;45.328;9.514;2023-05-14T12:43:22;1.65;;;1.30;;
36423;SDS011;22458;45.328;9.514;2023-05-14T12:45:47;2.20;;;1.20;;
36423;SDS011;22458;45.328;9.514;2023-05-14T12:48:13;1.30;;;0.77;;
36423;SDS011;22458;45.328;9.514;2023-05-14T12:50:39;1.52;;;0.90;;
36423;SDS011;22458;45.328;9.514;2023-05-14T12:53:05;1.40;;;0.90;;
36423;SDS011;22458;45.328;9.514;2023-05-14T12:55:30;7.82;;;1.30;;
36423;SDS011;22458;45.328;9.514;2023-05-14T12:57:58;1.55;;;1.20;;
36423;SDS011;22458;45.328;9.514;2023-05-14T13:00:24;1.48;;;0.77;;
36423;SDS011;22458;45.328;9.514;2023-05-14T13:02:49;0.80;;;0.60;;
36423;SDS011;22458;45.328;9.514;2023-05-14T13:05:15;1.33;;;0.93;;
36423;SDS011;22458;45.328;9.514;2023-05-14T13:07:41;2.83;;;1.00;;
36423;SDS011;22458;45.328;9.514;2023-05-14T13:10:07;2.08;;;0.80;;
36423;SDS011;22458;45.328;9.514;2023-05-14T13:12:33;1.67;;;0.90;;
36423;SDS011;22458;45.328;9.514;2023-05-14T13:14:59;0.98;;;0.77;;
36423;SDS011;22458;45.328;9.514;2023-05-14T13:17:24;1.13;;;0.82;;
36423;SDS011;22458;45.328;9.514;2023-05-14T13:19:50;1.50;;;0.80;;
36423;SDS011;22458;45.328;9.514;2023-05-14T13:22:16;1.77;;;0.90;;
36423;SDS011;22458;45.328;9.514;2023-05-14T13:24:43;1.88;;;0.65;;
36423;SDS011;22458;45.328;9.514;2023-05-14T13:27:08;1.85;;;0.60;;
36423;SDS011;22458;45.328;9.514;2023-05-14T13:29:34;1.13;;;0.80;;
36423;SDS011;22458;45.328;9.514;2023-05-14T13:32:00;1.20;;;0.60;;
36423;SDS011;22458;45.328;9.514;2023-05-14T13:34:25;0.77;;;0.60;;
36423;SDS011;22458;45.328;9.514;2023-05-14T13:36:51;1.25;;;0.90;;
36423;SDS011;22458;45.328;9.514;2023-05-14T13:39:18;1.60;;;0.70;;
36423;SDS011;22458;45.328;9.514;2023-05-14T13:41:46;1.00;;;0.55;;
36423;SDS011;22458;45.328;9.514;2023-05-14T13:44:14;1.00;;;0.55;;
36423;SDS011;22458;45.328;9.514;2023-05-14T13:46:40;2.45;;;0.68;;
36423;SDS011;22458;45.328;9.514;2023-05-14T13:49:06;1.27;;;0.80;;
36423;SDS011;22458;45.328;9.514;2023-05-14T13:51:32;1.73;;;0.60;;
36423;SDS011;22458;45.328;9.514;2023-05-14T13:53:58;1.05;;;0.60;;
36423;SDS011;22458;45.328;9.514;2023-05-14T13:56:23;0.75;;;0.45;;
36423;SDS011;22458;45.328;9.514;2023-05-14T13:58:49;1.48;;;0.80;;
36423;SDS011;22458;45.328;9.514;2023-05-14T14:01:15;1.15;;;0.88;;
36423;SDS011;22458;45.328;9.514;2023-05-14T14:03:41;2.42;;;0.70;;
36423;SDS011;22458;45.328;9.514;2023-05-14T14:06:07;1.15;;;0.63;;
36423;SDS011;22458;45.328;9.514;2023-05-14T14:08:32;2.85;;;0.80;;
36423;SDS011;22458;45.328;9.514;2023-05-14T14:10:58;2.00;;;1.05;;
36423;SDS011;22458;45.328;9.514;2023-05-14T14:13:24;1.10;;;0.70;;
36423;SDS011;22458;45.328;9.514;2023-05-14T14:15:50;1.27;;;0.82;;
36423;SDS011;22458;45.328;9.514;2023-05-14T14:18:16;1.30;;;0.60;;
36423;SDS011;22458;45.328;9.514;2023-05-14T14:20:41;0.85;;;0.75;;
36423;SDS011;22458;45.328;9.514;2023-05-14T14:23:07;1.80;;;0.68;;
36423;SDS011;22458;45.328;9.514;2023-05-14T14:25:33;1.60;;;0.63;;
36423;SDS011;22458;45.328;9.514;2023-05-14T14:27:59;0.82;;;0.65;;
36423;SDS011;22458;45.328;9.514;2023-05-14T14:30:25;1.48;;;0.70;;
36423;SDS011;22458;45.328;9.514;2023-05-14T14:32:50;1.15;;;0.65;;
36423;SDS011;22458;45.328;9.514;2023-05-14T14:35:17;1.00;;;0.70;;
36423;SDS011;22458;45.328;9.514;2023-05-14T14:37:44;1.52;;;0.50;;
36423;SDS011;22458;45.328;9.514;2023-05-14T14:40:13;1.77;;;0.45;;
36423;SDS011;22458;45.328;9.514;2023-05-14T14:42:40;1.65;;;0.57;;
36423;SDS011;22458;45.328;9.514;2023-05-14T14:45:07;1.15;;;0.70;;
36423;SDS011;22458;45.328;9.514;2023-05-14T14:47:34;2.30;;;0.63;;
36423;SDS011;22458;45.328;9.514;2023-05-14T14:50:00;2.17;;;0.60;;
36423;SDS011;22458;45.328;9.514;2023-05-14T14:52:25;2.50;;;0.68;;
36423;SDS011;22458;45.328;9.514;2023-05-14T14:54:52;1.10;;;0.60;;
36423;SDS011;22458;45.328;9.514;2023-05-14T14:57:19;1.35;;;0.70;;
36423;SDS011;22458;45.328;9.514;2023-05-14T14:59:46;1.00;;;0.60;;
36423;SDS011;22458;45.328;9.514;2023-05-14T15:02:11;1.85;;;0.70;;
36423;SDS011;22458;45.328;9.514;2023-05-14T15:04:37;0.73;;;0.40;;
36423;SDS011;22458;45.328;9.514;2023-05-14T15:07:03;1.77;;;0.60;;
36423;SDS011;22458;45.328;9.514;2023-05-14T15:09:30;0.90;;;0.43;;
36423;SDS011;22458;45.328;9.514;2023-05-14T15:11:56;1.42;;;0.65;;
36423;SDS011;22458;45.328;9.514;2023-05-14T15:14:21;0.90;;;0.68;;
36423;SDS011;22458;45.328;9.514;2023-05-14T15:16:47;1.13;;;0.47;;
36423;SDS011;22458;45.328;9.514;2023-05-14T15:19:13;2.92;;;0.35;;